< < Back
Terminal Aerodrome Forecast


Current Version              Previous Versions:   1  2  3  4  5  6  7  8  9  

Terminal Aerodrome Forecast

190
FTUS42 KGSP 312320
TAFAND
TAF
KAND 312320Z 0100/0124 23014G20KT P6SM FEW060
     FM010600 26004KT P6SM SCT060
     FM011000 32003KT P6SM SCT060
     FM011400 06006KT P6SM SCT060
     FM012000 11004KT P6SM SCT060=



Latest METAR

151
SAUS70 KWBC 312300 RRD
MTRAND
METAR KAND 312256Z AUTO 23014KT 10SM CLR 24/08 A2984 RMK AO2 PK WND
25026/2209 SLP101 T02390083


USA.gov is the U.S. government's official web portal to all federal, state and local government web resources and services.